Henderson, Nevada Weather observations

Data are for observation ending at time listed.
 Day   Time    Ave.   Ave.  Ave.  Vector   Max.   Stn.    Total    Solar   Ave.  
  of    of     Air    Rel.  Wind   Wind    Wind   Baro.  Precip.   Rad.    Soil  
Year   Day     Temp.  Hum.  Speed  Dir.    Gust   Pres.                    Temp. 
2014   (PST)    F      %     mph   deg.    mph     mb.     in.     W/m2     F   
------------------------------------------------------------------------------
 109    9:20   75.7    29    2.6    12      7.1   938.0    0.00     834    86.8
 109    9:30   75.8    28    1.8    12      4.7   938.0    0.00     881    87.5
 109    9:40   76.1    28    2.4   111      6.4   938.0    0.00     899    87.8
 109    9:50   76.8    27    2.0   130      5.6   938.0    0.00     920    88.4
 109   10:00   77.6    26    1.7   300      6.0   937.9    0.00     938    89.2
 109   10:10   77.7    26    2.8    79      6.5   937.8    0.00     957    89.4
 109   10:20   78.8    24    1.7   261      4.7   937.7    0.00     976    89.9
 109   10:30   79.1    25    2.0   220      7.8   937.6    0.00     992    90.7
 109   10:40   80.7    24    1.8    49      4.5   937.5    0.00    1006    91.4
 109   10:50   81.1    23    2.6   111      7.6   937.4    0.00    1019    92.1
 109   11:00   79.8    24    3.9    97      8.4   937.3    0.00    1027    91.4
 109   11:10   80.7    23    1.7   349      4.7   937.2    0.00    1038    91.6
 109   11:20   80.9    23    2.4    80      5.6   937.1    0.00    1045    92.3
 109   11:30   81.9    22    2.4   182      6.4   937.0    0.00    1051    92.6
 109   11:40   81.8    21    2.7   152      6.7   936.9    0.00    1052    93.0
 109   11:50   82.5    21    3.9   126      8.0   936.8    0.00    1052    93.1
 109   12:00   82.2    21    2.8   145      6.3   936.8    0.00    1043    93.0
 109   12:10   81.7    21    2.5   108      6.3   936.7    0.00    1062    92.9
 109   12:20   82.3    20    2.0   157      4.9   936.6    0.00    1035    93.3
 109   12:30   82.3    20    1.7   240      4.6   936.5    0.00    1026    93.6
 109   12:40   81.9    19    2.1   188      5.6   936.4    0.00    1040    93.6
 109   12:50   83.6    18    1.8    48      6.4   936.3    0.00    1028    94.0
 109   13:00   84.1    18    2.8    36      7.7   936.2    0.00    1018    94.1
 109   13:10   82.9    19    4.1   319      9.3   936.1    0.00     853    93.7
 109   13:20   82.8    19    2.4   339      6.4   936.0    0.00     963    92.7
 109   13:30   84.3    18    2.8    75      8.6   935.9    0.00     942    93.0
 109   13:40   83.9    18    2.3   108      6.9   935.8    0.00     882    92.9
 109   13:50   84.1    18    3.1   103      6.4   935.6    0.00     858    92.7
 109   14:00   84.3    18    4.0   100      8.3   935.5    0.00     806    92.6
 109   14:10   83.7    18    3.2    58      6.9   935.4    0.00     822    92.2
 109   14:20   84.7    18    3.4   331      9.8   935.3    0.00     818    92.3
 109   14:30   84.4    18    3.0   336      6.5   935.3    0.00     771    92.2
 109   14:40   84.1    17    2.7   315      7.2   935.2    0.00     737    92.0
 109   14:50   85.0    17    2.7    88      6.8   935.1    0.00     695    92.1
 109   15:00   84.1    18    2.8   104      7.2   935.1    0.00     641    91.9
 109   15:10   83.6    17    3.9   100      7.4   935.0    0.00     465    91.1
 109   15:20   83.5    17    3.2    70      7.8   934.9    0.00     597    90.2
 109   15:30   84.5    16    3.3    98     10.4   934.9    0.00     589    90.4
 109   15:40   84.9    16    2.6    68      6.8   935.0    0.00     512    90.6
 109   15:50   85.0    15    1.4   302      4.5   934.9    0.00     516    90.7
 109   16:00   85.1    15    1.6    93      4.4   934.9    0.00     447    91.0
 109   16:10   83.9    16    2.4   119      5.7   934.8    0.00     353    90.5
 109   16:20   85.0    15    1.6   339      4.3   934.8    0.00     373    90.1
 109   16:30   84.4    14    2.4    88      5.8   934.8    0.00     336    89.7
 109   16:40   84.5    14    1.6   331      4.2   934.8    0.00     322    89.2
 109   16:50   85.8    14    1.3   298      2.9   934.8    0.00     282    89.1
 109   17:00   85.4    14    0.9   335      2.8   934.8    0.00     218    88.7
 109   17:10   85.2    15    1.5    97      4.2   934.8    0.00     241    88.2
 109   17:20   86.5    14    1.1   333      2.9   934.7    0.00     234    88.1
 109   17:30   87.1    14    0.4   313      1.9   934.7    0.00     184    87.9
 109   17:40   85.4    15    0.9   131      2.5   934.7    0.00     142    87.4
 109   17:50   83.7    16    1.3    94      3.1   934.7    0.00      98    86.5
 109   18:00   82.6    16    1.2    63      3.2   934.7    0.00      58    85.4
 109   18:10   82.0    16    2.2   101      5.0   934.8    0.00      31    83.8
 109   18:20   81.9    16    3.4   106      6.0   934.8    0.00      14    82.3
 109   18:30   81.7    17    2.8   110      4.2   934.9    0.00       4    81.1
 109   18:40   81.1    17    2.7   112      5.0   934.9    0.00       0    79.9
 109   18:50   80.5    18    2.1   123      3.8   935.0    0.00       0    78.9
 109   19:00   79.5    19    1.8   134      3.8   935.0    0.00       0    77.7
 109   19:10   78.6    19    1.8   136      3.8   935.1    0.00       0    76.6
 109   19:20   78.2    19    1.6   143      2.8   935.3    0.00       0    75.7
 109   19:30   77.4    20    1.5   182      2.9   935.5    0.00       0    74.7
 109   19:40   76.7    20    1.5   144      3.8   935.6    0.00       0    73.6
 109   19:50   77.8    20    2.2   133      5.0   935.7    0.00       0    73.3
 109   20:00   77.6    20    1.8   151      4.7   935.9    0.00       0    73.2
 109   20:10   77.5    21    2.9   142      7.8   935.9    0.00       0    73.2
 109   20:20   77.8    21    2.6   144      5.8   935.9    0.00       0    73.5
 109   20:30   77.1    22    2.0   150      5.3   936.0    0.00       0    73.4
 109   20:40   76.2    22    2.0   155      6.2   936.1    0.00       0    72.9
 109   20:50   75.8    22    1.7   160      3.9   936.2    0.00       0    72.4
 109   21:00   75.5    23    2.1   142      5.1   936.2    0.00       0    72.0
 109   21:10   75.2    23    1.8   142      3.9   936.3    0.00       0    71.8
 109   21:20   74.8    24    2.1   143      5.3   936.3    0.00       0    71.5
 109   21:30   75.2    24    2.1   160      7.9   936.4    0.00       0    71.5
 109   21:40   75.1    24    2.6   160      7.9   936.5    0.00       0    71.4
 109   21:50   75.0    24    2.4   154      6.6   936.5    0.00       0    71.4
 109   22:00   75.0    24    2.8   149      6.8   936.7    0.00       0    71.3
 109   22:10   74.7    25    3.2   145      6.4   936.7    0.00       0    71.4
 109   22:20   74.8    25    3.6   147      7.2   936.7    0.00       0    71.4
 109   22:30   74.4    25    3.0   139      6.9   936.7    0.00       0    71.4
 109   22:40   73.8    26    2.7   145      6.0   936.7    0.00       0    71.0
 109   22:50   73.6    26    2.7   149      6.4   936.7    0.00       0    70.6
 109   23:00   73.4    26    2.6   161      5.8   936.7    0.00       0    70.2
 109   23:10   72.8    27    2.4   150      6.0   936.7    0.00       0    69.9
 109   23:20   72.3    27    2.2   150      5.1   936.8    0.00       0    69.5
 109   23:30   71.9    27    2.0   146      4.5   936.8    0.00       0    69.1
 109   23:40   72.0    27    2.4   138      6.1   936.8    0.00       0    68.8
 109   23:50   72.1    27    2.2   134      5.0   936.8    0.00       0    68.7
 110    0:00   71.5    27    2.2   126      3.6   936.8    0.00       0    68.4
 110    0:10   71.2    27    2.5   122      4.6   936.8    0.00       0    68.2
 110    0:20   71.1    28    2.5   126      4.2   936.8    0.00       0    67.9
 110    0:30   71.2    27    2.5   127      4.3   936.8    0.00       0    67.8
 110    0:40   71.4    27    2.3   132      5.0   936.8    0.00       0    67.7
 110    0:50   71.5    27    1.8   152      3.8   936.8    0.00       0    67.5
 110    1:00   70.9    27    1.3   149      3.1   936.8    0.00       0    67.0
 110    1:10   70.5    28    1.9   131      3.4   936.9    0.00       0    66.5
 110    1:20   70.4    28    1.7   152      5.1   936.9    0.00       0    66.3
 110    1:30   70.0    28    1.6   197      4.9   936.9    0.00       0    66.1
 110    1:40   69.8    28    1.9   184      5.4   936.9    0.00       0    65.7
 110    1:50   69.8    28    1.3   142      4.2   937.0    0.00       0    65.5
 110    2:00   69.0    29    1.2   123      2.4   937.1    0.00       0    65.1
 110    2:10   68.5    29    1.3   124      2.0   937.1    0.00       0    64.8
 110    2:20   68.3    29    1.5   131      3.5   937.1    0.00       0    64.3
 110    2:30   68.5    28    1.9   138      4.8   937.0    0.00       0    64.1
 110    2:40   68.8    28    1.6   161      3.7   937.1    0.00       0    64.0
 110    2:50   68.5    29    1.6   126      3.1   937.1    0.00       0    64.0
 110    3:00   67.9    29    1.2   107      3.5   937.1    0.00       0    63.7
 110    3:10   67.7    29    1.4   118      2.9   937.1    0.00       0    63.4
 110    3:20   67.9    29    2.4   119      5.0   937.2    0.00       0    63.4
 110    3:30   67.9    29    2.3   124      3.3   937.3    0.00       0    63.7
 110    3:40   67.3    30    1.7   114      3.0   937.4    0.00       0    63.6
 110    3:50   67.7    29    1.6   154      4.9   937.4    0.00       0    63.4
 110    4:00   67.6    30    1.2   118      2.5   937.5    0.00       0    63.4
 110    4:10   67.3    30    1.0   130      1.8   937.5    0.00       0    63.1
 110    4:20   66.3    32    1.0   315      2.0   937.5    0.00       0    62.7
 110    4:30   65.1    33    0.4   289      2.0   937.6    0.00       0    62.1
 110    4:40   64.4    33    0.6   190      1.5   937.7    0.00       0    61.4
 110    4:50   64.7    33    0.5   224      1.6   937.8    0.00       0    61.0
 110    5:00   64.3    34    1.0   143      1.9   937.9    0.00       4    60.5
 110    5:10   64.7    33    1.2   174      3.2   937.9    0.00       7    60.2
 110    5:20   65.3    32    1.8   172      4.7   938.0    0.00      15    60.4
 110    5:30   65.4    32    2.3   195      4.5   938.2    0.00      27    60.6
 110    5:40   65.6    33    0.8   243      2.6   938.3    0.00      35    60.8
 110    5:50   65.2    34    1.3   250      2.9   938.5    0.00      54    60.9
 110    6:00   66.0    33    1.7   234      2.9   938.6    0.00      72    61.1
 110    6:10   67.2    32    2.3   286      3.8   938.8    0.00     165    61.8
 110    6:20   67.5    32    1.6   299      3.1   939.0    0.00     205    62.6
 110    6:30   68.4    31    1.7   305      3.1   939.0    0.00     244    63.8
 110    6:40   69.4    30    1.6   312      3.3   939.1    0.00     280    67.0
 110    6:50   70.3    30    1.6   323      2.9   939.3    0.00     321    70.3
 110    7:00   71.3    28    1.1   348      3.2   939.3    0.00     360    73.2
 110    7:10   72.1    27    2.0   325      4.4   939.5    0.00     398    75.4
 110    7:20   72.7    27    1.9   312      4.0   939.6    0.00     439    77.3
 110    7:30   73.1    27    2.0   308      3.9   939.7    0.00     477    79.1
 110    7:40   74.8    26    1.0   331      2.8   939.7    0.00     515    80.8
 110    7:50   76.3    24    1.5    50      4.2   939.6    0.00     553    82.5
 110    8:00   77.0    24    1.9    78      3.7   939.7    0.00     581    83.8
 110    8:10   77.6    24    1.6    76      3.3   939.7    0.00     612    84.8
 110    8:20   77.8    23    1.9    66      4.2   939.8    0.00     656    86.0
 110    8:30   77.9    23    2.2    94      5.3   939.8    0.00     671    86.5
 110    8:40   79.1    23    2.3   108      5.6   939.9    0.00     724    87.4
 110    8:50   79.8    22    2.2    99      6.0   939.9    0.00     738    88.5
 110    9:00   80.5    22    2.0    93      4.5   940.0    0.00     770    89.5
 110    9:10   81.4    21    2.4   102      6.3   940.0    0.00     807    90.5

Return to Henderson, Nevada graphs page.


Western Regional Climate Center,wrcc@dri.edu